Time;durP1;ratioP1;P1;durP2;ratioP2;P2;SDS_P1;SDS_P2;PMS_P1;PMS_P2;Temp;Humidity;BMP_temperature;BMP_pressure;BME280_temperature;BME280_humidity;BME280_pressure;Samples;Min_cycle;Max_cycle;Signal;HPM_P1;HPM_P2
2023/06/07 00:01:29;;;;;;;;;;;;;;;;;;5025763;28;19948;-44
2023/06/07 05:08:26;;;;;;;;;;;;;;;;;;5039195;28;19912;-48
2023/06/07 05:10:52;;;;;;;;;;;;;;;;;;5051782;28;20292;-42
2023/06/07 05:13:18;;;;;;;;;;;;;;;;;;5035852;28;19964;-45
2023/06/07 05:15:44;;;;;;;;;;;;;;;;;;5030971;28;20603;-43
2023/06/07 05:18:12;;;;;;;;;;;;;;;;;;5031621;28;19955;-43
2023/06/07 05:20:38;;;;;;;;;;;;;;;;;;5031889;28;19916;-42
2023/06/07 05:23:03;;;;;;;;;;;;;;;;;;5030015;28;19924;-43
2023/06/07 05:25:31;;;;;;;;;;;;;;;;;;5030954;28;19917;-43
2023/06/07 05:27:57;;;;;;;;;;;;;;;;;;5030849;28;20347;-44
2023/06/07 05:30:24;;;;;;;;;;;;;;;;;;5031402;28;19916;-44
2023/06/07 05:32:51;;;;;;;;;;;;;;;;;;5030677;28;19964;-42
2023/06/07 05:35:17;;;;;;;;;;;;;;;;;;5030835;28;19921;-42
2023/06/07 05:37:43;;;;;;;;;;;;;;;;;;5030669;28;19917;-44
2023/06/07 05:40:10;;;;;;;;;;;;;;;;;;5030171;28;19920;-41
2023/06/07 05:42:38;;;;;;;;;;;;;;;;;;5030029;28;19921;-42
2023/06/07 05:45:04;;;;;;;;;;;;;;;;;;5030485;28;19971;-42
2023/06/07 05:47:30;;;;;;;;;;;;;;;;;;5031268;28;19918;-45
2023/06/07 05:49:56;;;;;;;;;;;;;;;;;;5028846;28;19922;-43
2023/06/07 05:52:22;;;;;;;;;;;;;;;;;;5031205;28;19909;-42
2023/06/07 05:54:49;;;;;;;;;;;;;;;;;;5030524;28;20071;-45
2023/06/07 05:57:15;;;;;;;;;;;;;;;;;;5043225;28;20406;-42
2023/06/07 05:59:41;;;;;;;;;;;;;;;;;;5036308;28;20002;-44
2023/06/07 06:02:07;;;;;;;;;;;;;;;;;;5028710;28;19979;-43
2023/06/07 06:04:33;;;;;;;;;;;;;;;;;;5029979;28;19983;-43
2023/06/07 06:07:00;;;;;;;;;;;;;;;;;;5031005;28;19948;-42
2023/06/07 06:09:26;;;;;;;;;;;;;;;;;;5031559;28;19924;-46
2023/06/07 06:11:52;;;;;;;;;;;;;;;;;;5031020;28;20004;-44
2023/06/07 06:14:20;;;;;;;;;;;;;;;;;;5030740;28;19972;-42
2023/06/07 06:16:46;;;;;;;;;;;;;;;;;;5030784;28;19917;-43
2023/06/07 06:19:12;;;;;;;;;;;;;;;;;;5030910;28;19929;-42
2023/06/07 06:21:38;;;;;;;;;;;;;;;;;;5030106;28;19947;-45
2023/06/07 06:24:04;;;;;;;;;;;;;;;;;;5031517;28;19917;-43
2023/06/07 06:26:30;;;;;;;;;;;;;;;;;;5035125;28;19912;-44
2023/06/07 06:28:58;;;;;;;;;;;;;;;;;;5037407;28;20003;-43
2023/06/07 06:31:23;;;;;;;;;;;;;;;;;;5031700;28;19992;-42
2023/06/07 06:33:49;;;;;;;;;;;;;;;;;;5039060;28;20403;-42
2023/06/07 06:36:15;;;;;;;;;;;;;;;;;;5031315;28;19909;-43
2023/06/07 06:38:42;;;;;;;;;;;;;;;;;;5034746;28;19913;-43
2023/06/07 06:41:08;;;;;;;;;;;;;;;;;;5050997;28;19912;-43
2023/06/07 06:43:35;;;;;;;;;;;;;;;;;;5050736;28;19936;-42
2023/06/07 06:46:01;;;;;;;;;;;;;;;;;;5051096;28;20383;-43
2023/06/07 06:48:26;;;;;;;;;;;;;;;;;;5051078;28;19944;-42
2023/06/07 06:50:52;;;;;;;;;;;;;;;;;;5031643;28;19931;-43
2023/06/07 06:53:18;;;;;;;;;;;;;;;;;;5030862;28;19948;-42
2023/06/07 06:55:44;;;;;;;;;;;;;;;;;;5030459;28;19952;-42
2023/06/07 06:58:10;;;;;;;;;;;;;;;;;;5029475;28;19984;-42
2023/06/07 07:00:37;;;;;;;;;;;;;;;;;;5030465;28;20372;-42
2023/06/07 07:03:03;;;;;;;;;;;;;;;;;;5029542;28;20016;-43
2023/06/07 07:05:29;;;;;;;;;;;;;;;;;;5029873;28;20007;-42
2023/06/07 07:07:55;;;;;;;;;;;;;;;;;;5030453;28;20296;-44
2023/06/07 07:10:21;;;;;;;;;;;;;;;;;;5030321;28;19943;-43
2023/06/07 07:12:47;;;;;;;;;;;;;;;;;;5036350;28;19944;-45
2023/06/07 07:15:13;;;;;;;;;;;;;;;;;;5034350;28;19913;-42
2023/06/07 07:17:39;;;;;;;;;;;;;;;;;;5049248;28;19916;-44
2023/06/07 07:20:05;;;;;;;;;;;;;;;;;;5050347;28;19913;-44
2023/06/07 07:22:31;;;;;;;;;;;;;;;;;;5050279;28;19966;-45
2023/06/07 07:24:58;;;;;;;;;;;;;;;;;;5050597;28;20303;-43
2023/06/07 07:27:23;;;;;;;;;;;;;;;;;;5050288;28;19916;-44
2023/06/07 07:29:49;;;;;;;;;;;;;;;;;;5049858;28;19927;-42
2023/06/07 07:32:15;;;;;;;;;;;;;;;;;;5050133;28;19944;-44
2023/06/07 07:34:42;;;;;;;;;;;;;;;;;;5050010;28;19932;-44
2023/06/07 07:37:08;;;;;;;;;;;;;;;;;;5050119;28;19909;-51
2023/06/07 07:39:34;;;;;;;;;;;;;;;;;;5049749;28;19916;-42
2023/06/07 07:42:00;;;;;;;;;;;;;;;;;;5049964;28;19912;-43
2023/06/07 07:44:26;;;;;;;;;;;;;;;;;;5050113;28;19915;-43
2023/06/07 07:46:52;;;;;;;;;;;;;;;;;;5041168;28;20000;-43
2023/06/07 07:49:18;;;;;;;;;;;;;;;;;;5028529;28;19915;-43
2023/06/07 07:51:44;;;;;;;;;;;;;;;;;;5029832;28;19979;-44
2023/06/07 07:54:09;;;;;;;;;;;;;;;;;;5028762;28;19913;-42
2023/06/07 07:56:35;;;;;;;;;;;;;;;;;;5029796;28;19963;-42
2023/06/07 07:59:01;;;;;;;;;;;;;;;;;;5029453;28;19905;-42
2023/06/07 08:01:28;;;;;;;;;;;;;;;;;;5028562;28;19921;-43
2023/06/07 08:03:55;;;;;;;;;;;;;;;;;;5029004;28;19917;-44
2023/06/07 08:06:21;;;;;;;;;;;;;;;;;;5029075;28;19921;-42
2023/06/07 08:08:47;;;;;;;;;;;;;;;;;;5027365;28;20343;-42
2023/06/07 08:11:13;;;;;;;;;;;;;;;;;;5028929;28;19917;-43
2023/06/07 08:13:39;;;;;;;;;;;;;;;;;;5026904;28;19963;-43
2023/06/07 08:16:05;;;;;;;;;;;;;;;;;;5027950;28;19917;-43
2023/06/07 08:18:31;;;;;;;;;;;;;;;;;;5028480;28;20253;-43
2023/06/07 08:20:57;;;;;;;;;;;;;;;;;;5027809;28;19917;-42
2023/06/07 08:23:23;;;;;;;;;;;;;;;;;;5024285;28;19920;-42
2023/06/07 08:25:49;;;;;;;;;;;;;;;;;;5034600;28;20372;-42
2023/06/07 08:28:16;;;;;;;;;;;;;;;;;;5030395;28;19951;-42
2023/06/07 08:30:42;;;;;;;;;;;;;;;;;;5012768;28;19949;-42
2023/06/07 08:33:08;;;;;;;;;;;;;;;;;;5030265;28;19960;-43
2023/06/07 08:35:34;;;;;;;;;;;;;;;;;;5032453;28;20457;-43
2023/06/07 08:38:00;;;;;;;;;;;;;;;;;;5031753;28;19940;-42
2023/06/07 08:40:26;;;;;;;;;;;;;;;;;;5031644;28;20376;-43
2023/06/07 08:42:52;;;;;;;;;;;;;;;;;;5035568;28;19924;-43
2023/06/07 08:45:18;;;;;;;;;;;;;;;;;;5045765;28;19940;-44
2023/06/07 08:47:44;;;;;;;;;;;;;;;;;;5031726;28;20279;-42
2023/06/07 08:50:13;;;;;;;;;;;;;;;;;;5031372;28;19917;-43
2023/06/07 08:52:40;;;;;;;;;;;;;;;;;;5031428;28;19945;-42
2023/06/07 08:55:06;;;;;;;;;;;;;;;;;;5032021;28;19913;-43
2023/06/07 08:57:32;;;;;;;;;;;;;;;;;;5031885;28;20011;-43
2023/06/07 08:59:58;;;;;;;;;;;;;;;;;;5030997;28;19996;-45
2023/06/07 09:02:25;;;;;;;;;;;;;;;;;;5030719;28;19968;-42
2023/06/07 09:04:51;;;;;;;;;;;;;;;;;;5030659;28;19968;-42
2023/06/07 09:07:17;;;;;;;;;;;;;;;;;;5030579;28;19948;-44
2023/06/07 09:09:46;;;;;;;;;;;;;;;;;;5030012;28;19983;-44
2023/06/07 09:12:12;;;;;;;;;;;;;;;;;;5030453;28;20003;-44
2023/06/07 09:14:38;;;;;;;;;;;;;;;;;;5031822;28;20008;-44
2023/06/07 09:17:04;;;;;;;;;;;;;;;;;;5032094;28;19909;-46
2023/06/07 09:19:30;;;;;;;;;;;;;;;;;;5030201;28;19975;-42
2023/06/07 09:21:57;;;;;;;;;;;;;;;;;;5013032;28;19917;-47
2023/06/07 09:24:23;;;;;;;;;;;;;;;;;;5017461;28;19909;-45
2023/06/07 09:26:48;;;;;;;;;;;;;;;;;;5033366;28;19971;-43
2023/06/07 09:29:14;;;;;;;;;;;;;;;;;;5029984;28;19909;-42
2023/06/07 09:31:40;;;;;;;;;;;;;;;;;;5030050;28;19939;-45
2023/06/07 09:34:06;;;;;;;;;;;;;;;;;;5030097;28;20391;-46
2023/06/07 09:36:32;;;;;;;;;;;;;;;;;;5030030;28;19915;-45
2023/06/07 09:38:58;;;;;;;;;;;;;;;;;;5029203;28;19980;-45
2023/06/07 09:41:24;;;;;;;;;;;;;;;;;;5029403;28;19923;-46
2023/06/07 09:43:51;;;;;;;;;;;;;;;;;;5029974;28;19924;-44
2023/06/07 09:46:17;;;;;;;;;;;;;;;;;;5010636;28;19917;-47
2023/06/07 09:48:42;;;;;;;;;;;;;;;;;;5030027;28;19916;-45
2023/06/07 09:51:09;;;;;;;;;;;;;;;;;;5029148;28;19920;-44
2023/06/07 09:53:35;;;;;;;;;;;;;;;;;;5029829;28;19923;-42
2023/06/07 09:56:01;;;;;;;;;;;;;;;;;;5029363;28;19928;-43
2023/06/07 09:58:27;;;;;;;;;;;;;;;;;;5029761;28;19917;-42
2023/06/07 10:00:55;;;;;;;;;;;;;;;;;;5029571;28;20368;-47
2023/06/07 10:03:22;;;;;;;;;;;;;;;;;;5029387;28;19920;-44
2023/06/07 10:05:48;;;;;;;;;;;;;;;;;;5029370;28;20007;-44
2023/06/07 10:08:14;;;;;;;;;;;;;;;;;;5027219;28;20012;-46
2023/06/07 10:10:40;;;;;;;;;;;;;;;;;;5027024;28;19928;-46
2023/06/07 10:13:06;;;;;;;;;;;;;;;;;;5030318;28;19917;-44
2023/06/07 10:15:32;;;;;;;;;;;;;;;;;;5029576;28;19913;-43
2023/06/07 10:17:58;;;;;;;;;;;;;;;;;;5030476;28;19913;-42
2023/06/07 10:20:27;;;;;;;;;;;;;;;;;;5030617;28;19999;-45
2023/06/07 10:22:55;;;;;;;;;;;;;;;;;;5027919;28;20367;-43
2023/06/07 10:25:21;;;;;;;;;;;;;;;;;;5029204;28;19956;-42
2023/06/07 10:27:47;;;;;;;;;;;;;;;;;;5028374;28;19917;-43
2023/06/07 10:30:14;;;;;;;;;;;;;;;;;;5024819;28;19913;-44
2023/06/07 10:32:40;;;;;;;;;;;;;;;;;;5030248;28;20366;-44
2023/06/07 10:35:06;;;;;;;;;;;;;;;;;;5029669;28;20012;-43
2023/06/07 10:37:33;;;;;;;;;;;;;;;;;;5028572;28;19920;-44
2023/06/07 10:39:59;;;;;;;;;;;;;;;;;;5028835;28;19909;-43
2023/06/07 10:42:26;;;;;;;;;;;;;;;;;;5028418;28;20384;-43
2023/06/07 10:44:53;;;;;;;;;;;;;;;;;;5022963;28;19913;-44
2023/06/07 10:47:19;;;;;;;;;;;;;;;;;;5029127;28;20007;-47
2023/06/07 10:49:45;;;;;;;;;;;;;;;;;;5028962;28;20000;-45
2023/06/07 10:52:14;;;;;;;;;;;;;;;;;;5011877;28;19984;-42
2023/06/07 10:54:41;;;;;;;;;;;;;;;;;;5010285;28;19928;-43
2023/06/07 10:57:07;;;;;;;;;;;;;;;;;;5009879;28;19920;-44
2023/06/07 10:59:33;;;;;;;;;;;;;;;;;;5027108;28;19913;-43
2023/06/07 11:01:59;;;;;;;;;;;;;;;;;;5026964;28;19923;-45
2023/06/07 11:04:25;;;;;;;;;;;;;;;;;;5027978;28;20569;-45
2023/06/07 11:06:51;;;;;;;;;;;;;;;;;;5015292;28;19924;-45
2023/06/07 11:09:17;;;;;;;;;;;;;;;;;;5027358;28;19948;-44
2023/06/07 11:11:43;;;;;;;;;;;;;;;;;;5023766;28;19943;-43
2023/06/07 11:14:09;;;;;;;;;;;;;;;;;;5020579;28;19928;-44
2023/06/07 11:16:36;;;;;;;;;;;;;;;;;;5027364;28;20450;-44
2023/06/07 11:19:05;;;;;;;;;;;;;;;;;;5015309;28;19917;-44
2023/06/07 11:21:31;;;;;;;;;;;;;;;;;;5007580;28;19944;-46
2023/06/07 11:23:57;;;;;;;;;;;;;;;;;;5015576;28;20003;-45
2023/06/07 11:26:23;;;;;;;;;;;;;;;;;;5026246;28;19976;-47
2023/06/07 11:28:49;;;;;;;;;;;;;;;;;;5026537;28;19913;-46
2023/06/07 11:31:16;;;;;;;;;;;;;;;;;;5025943;28;19959;-44
2023/06/07 11:33:42;;;;;;;;;;;;;;;;;;5020124;28;19929;-43
2023/06/07 11:36:11;;;;;;;;;;;;;;;;;;5016079;28;19917;-43
2023/06/07 11:38:37;;;;;;;;;;;;;;;;;;5027052;28;20711;-44
2023/06/07 11:41:03;;;;;;;;;;;;;;;;;;5027774;28;19992;-42
2023/06/07 11:43:29;;;;;;;;;;;;;;;;;;5027256;28;19955;-44
2023/06/07 11:45:55;;;;;;;;;;;;;;;;;;5027499;28;20023;-45
2023/06/07 11:48:21;;;;;;;;;;;;;;;;;;5026796;28;19913;-45
2023/06/07 11:50:47;;;;;;;;;;;;;;;;;;5009673;28;19971;-43
2023/06/07 11:53:15;;;;;;;;;;;;;;;;;;5026937;28;19913;-47
2023/06/07 11:55:41;;;;;;;;;;;;;;;;;;5008578;28;19960;-43
2023/06/07 11:58:07;;;;;;;;;;;;;;;;;;5027442;28;20015;-47
2023/06/07 12:00:33;;;;;;;;;;;;;;;;;;5027366;28;20561;-43
2023/06/07 12:02:59;;;;;;;;;;;;;;;;;;5025891;28;19939;-46
2023/06/07 12:05:30;;;;;;;;;;;;;;;;;;5027197;28;19969;-44
2023/06/07 12:07:56;;;;;;;;;;;;;;;;;;5026087;28;20336;-45
2023/06/07 12:10:23;;;;;;;;;;;;;;;;;;5026389;28;19928;-45
2023/06/07 12:12:49;;;;;;;;;;;;;;;;;;5022512;28;20414;-43
2023/06/07 12:15:15;;;;;;;;;;;;;;;;;;5023116;28;19917;-43
2023/06/07 12:17:41;;;;;;;;;;;;;;;;;;5026462;28;19921;-45
2023/06/07 12:20:10;;;;;;;;;;;;;;;;;;5026588;28;19917;-45
2023/06/07 12:22:36;;;;;;;;;;;;;;;;;;5026407;28;19968;-46
2023/06/07 12:25:02;;;;;;;;;;;;;;;;;;5023607;28;19983;-48
2023/06/07 12:27:28;;;;;;;;;;;;;;;;;;5027173;28;19913;-50
2023/06/07 12:29:55;;;;;;;;;;;;;;;;;;5026643;28;19961;-50
2023/06/07 12:32:21;;;;;;;;;;;;;;;;;;5025094;28;19920;-52
2023/06/07 12:34:47;;;;;;;;;;;;;;;;;;5019104;28;20447;-48
2023/06/07 12:37:13;;;;;;;;;;;;;;;;;;5026049;28;19917;-52
2023/06/07 12:39:39;;;;;;;;;;;;;;;;;;5025467;28;19917;-47
2023/06/07 12:42:06;;;;;;;;;;;;;;;;;;5025781;28;19932;-47
2023/06/07 12:44:32;;;;;;;;;;;;;;;;;;5025961;28;19913;-51
2023/06/07 12:46:58;;;;;;;;;;;;;;;;;;5026318;28;19924;-51
2023/06/07 12:49:24;;;;;;;;;;;;;;;;;;5008042;28;19916;-49
2023/06/07 12:51:50;;;;;;;;;;;;;;;;;;5024702;28;20292;-52
2023/06/07 12:54:16;;;;;;;;;;;;;;;;;;5025992;28;19935;-48
2023/06/07 12:56:42;;;;;;;;;;;;;;;;;;5026562;28;19913;-49
2023/06/07 12:59:08;;;;;;;;;;;;;;;;;;5026678;28;19917;-49
2023/06/07 13:01:34;;;;;;;;;;;;;;;;;;5026891;28;20338;-51
2023/06/07 13:04:00;;;;;;;;;;;;;;;;;;5025175;28;19909;-46
2023/06/07 13:06:28;;;;;;;;;;;;;;;;;;5026530;28;19952;-48
2023/06/07 13:08:54;;;;;;;;;;;;;;;;;;5026244;28;19916;-48
2023/06/07 13:11:21;;;;;;;;;;;;;;;;;;5025641;28;20020;-51
2023/06/07 13:13:47;;;;;;;;;;;;;;;;;;5027580;28;19932;-48
2023/06/07 13:16:13;;;;;;;;;;;;;;;;;;5030275;28;19932;-49
2023/06/07 13:18:39;;;;;;;;;;;;;;;;;;5032531;28;20345;-50
2023/06/07 13:21:05;;;;;;;;;;;;;;;;;;5028731;28;19968;-50
2023/06/07 13:23:31;;;;;;;;;;;;;;;;;;5028698;28;19921;-51
2023/06/07 13:25:58;;;;;;;;;;;;;;;;;;5020764;28;19917;-51
2023/06/07 13:28:23;;;;;;;;;;;;;;;;;;5016533;28;19909;-51
2023/06/07 13:30:49;;;;;;;;;;;;;;;;;;5029848;28;20515;-51
2023/06/07 13:33:16;;;;;;;;;;;;;;;;;;5029462;28;19932;-50
2023/06/07 13:35:42;;;;;;;;;;;;;;;;;;5028836;28;20609;-49
2023/06/07 13:38:08;;;;;;;;;;;;;;;;;;5029284;28;19913;-52
2023/06/07 13:40:34;;;;;;;;;;;;;;;;;;5028037;28;19920;-47
2023/06/07 13:43:00;;;;;;;;;;;;;;;;;;5028467;28;20439;-49
2023/06/07 13:45:26;;;;;;;;;;;;;;;;;;5028201;28;19920;-51
2023/06/07 13:47:52;;;;;;;;;;;;;;;;;;5028879;28;19913;-51
2023/06/07 13:50:18;;;;;;;;;;;;;;;;;;5025054;28;20455;-51
2023/06/07 13:52:44;;;;;;;;;;;;;;;;;;5028541;28;20012;-50
2023/06/07 13:55:11;;;;;;;;;;;;;;;;;;5028673;28;19913;-51
2023/06/07 13:57:37;;;;;;;;;;;;;;;;;;5028742;28;20020;-50
2023/06/07 14:00:04;;;;;;;;;;;;;;;;;;5028385;28;20012;-51
2023/06/07 14:02:30;;;;;;;;;;;;;;;;;;5028215;28;20415;-52
2023/06/07 14:04:56;;;;;;;;;;;;;;;;;;5027635;28;19913;-51
2023/06/07 14:07:22;;;;;;;;;;;;;;;;;;4997805;28;20473;-49
2023/06/07 14:09:48;;;;;;;;;;;;;;;;;;5028293;28;19924;-52
2023/06/07 14:12:15;;;;;;;;;;;;;;;;;;5028734;28;20391;-51
2023/06/07 14:14:40;;;;;;;;;;;;;;;;;;5027858;28;19921;-51
2023/06/07 14:17:06;;;;;;;;;;;;;;;;;;5027097;28;19914;-48
2023/06/07 14:19:32;;;;;;;;;;;;;;;;;;5026567;28;19917;-49
2023/06/07 14:21:58;;;;;;;;;;;;;;;;;;5027848;28;19921;-51
2023/06/07 14:24:24;;;;;;;;;;;;;;;;;;5027837;28;19967;-50
2023/06/07 14:26:50;;;;;;;;;;;;;;;;;;5028174;28;20676;-51
2023/06/07 14:29:16;;;;;;;;;;;;;;;;;;5028665;28;19921;-52
2023/06/07 14:31:42;;;;;;;;;;;;;;;;;;5027407;28;19923;-52
2023/06/07 14:34:08;;;;;;;;;;;;;;;;;;5027687;28;19917;-52
2023/06/07 14:36:35;;;;;;;;;;;;;;;;;;5027853;28;19937;-50
2023/06/07 14:39:01;;;;;;;;;;;;;;;;;;5027363;28;19948;-51
2023/06/07 14:41:28;;;;;;;;;;;;;;;;;;5009819;28;19917;-51
2023/06/07 14:43:54;;;;;;;;;;;;;;;;;;5026230;28;19917;-49
2023/06/07 14:46:20;;;;;;;;;;;;;;;;;;5020955;28;20438;-49
2023/06/07 14:48:47;;;;;;;;;;;;;;;;;;5027592;28;19956;-52
2023/06/07 14:51:14;;;;;;;;;;;;;;;;;;5027769;28;20454;-52
2023/06/07 14:53:40;;;;;;;;;;;;;;;;;;5027382;28;19992;-52
2023/06/07 14:56:06;;;;;;;;;;;;;;;;;;5027374;28;20012;-50
2023/06/07 14:58:32;;;;;;;;;;;;;;;;;;5027062;28;19995;-51
2023/06/07 15:00:58;;;;;;;;;;;;;;;;;;5026877;28;19917;-50
2023/06/07 15:03:24;;;;;;;;;;;;;;;;;;5025584;28;19917;-50
2023/06/07 15:05:50;;;;;;;;;;;;;;;;;;5027610;28;19913;-51
2023/06/07 15:08:16;;;;;;;;;;;;;;;;;;5026810;28;19913;-49
2023/06/07 15:10:42;;;;;;;;;;;;;;;;;;5008198;28;19999;-51
2023/06/07 15:13:08;;;;;;;;;;;;;;;;;;5026442;28;19921;-50
2023/06/07 15:15:35;;;;;;;;;;;;;;;;;;5027526;28;19917;-51
2023/06/07 15:18:01;;;;;;;;;;;;;;;;;;5027466;28;19956;-52
2023/06/07 15:20:27;;;;;;;;;;;;;;;;;;5027437;28;19945;-52
2023/06/07 15:22:53;;;;;;;;;;;;;;;;;;5027792;28;19987;-51
2023/06/07 15:25:19;;;;;;;;;;;;;;;;;;5046654;28;19967;-50
2023/06/07 15:27:45;;;;;;;;;;;;;;;;;;5027703;28;20295;-49
2023/06/07 15:30:11;;;;;;;;;;;;;;;;;;5027904;28;19932;-49
2023/06/07 15:32:37;;;;;;;;;;;;;;;;;;5027299;28;19913;-50
2023/06/07 15:35:03;;;;;;;;;;;;;;;;;;5026496;28;19923;-51
2023/06/07 15:37:29;;;;;;;;;;;;;;;;;;5015482;28;19917;-50
2023/06/07 15:39:55;;;;;;;;;;;;;;;;;;5026270;28;19940;-51
2023/06/07 15:42:21;;;;;;;;;;;;;;;;;;5026134;28;20418;-52
2023/06/07 15:44:47;;;;;;;;;;;;;;;;;;5026104;28;19913;-48
2023/06/07 15:47:13;;;;;;;;;;;;;;;;;;5027340;28;20687;-50
2023/06/07 15:49:39;;;;;;;;;;;;;;;;;;5025624;28;19971;-48
2023/06/07 15:52:06;;;;;;;;;;;;;;;;;;5025961;28;20000;-49
2023/06/07 15:54:32;;;;;;;;;;;;;;;;;;5025852;28;19988;-51
2023/06/07 15:56:57;;;;;;;;;;;;;;;;;;5007479;28;20396;-50
2023/06/07 15:59:23;;;;;;;;;;;;;;;;;;5023537;28;20015;-53
2023/06/07 16:01:49;;;;;;;;;;;;;;;;;;5023646;28;19920;-52
2023/06/07 16:04:15;;;;;;;;;;;;;;;;;;5024585;28;20292;-51
2023/06/07 16:06:41;;;;;;;;;;;;;;;;;;5027237;28;20000;-51
2023/06/07 16:09:10;;;;;;;;;;;;;;;;;;5025626;28;20115;-52
2023/06/07 16:11:36;;;;;;;;;;;;;;;;;;5025692;28;19917;-52
2023/06/07 16:14:02;;;;;;;;;;;;;;;;;;5025494;28;19913;-52
2023/06/07 16:16:30;;;;;;;;;;;;;;;;;;5025529;28;21464;-50
2023/06/07 16:18:56;;;;;;;;;;;;;;;;;;5025742;28;19913;-51
2023/06/07 16:21:22;;;;;;;;;;;;;;;;;;5025059;28;19967;-50
2023/06/07 16:23:48;;;;;;;;;;;;;;;;;;5026984;28;19913;-50
2023/06/07 16:26:14;;;;;;;;;;;;;;;;;;5022944;28;20012;-49
2023/06/07 16:28:40;;;;;;;;;;;;;;;;;;5029146;28;20019;-47
2023/06/07 16:31:06;;;;;;;;;;;;;;;;;;5027845;28;19909;-51
2023/06/07 16:33:32;;;;;;;;;;;;;;;;;;5040399;28;19913;-48
2023/06/07 16:35:58;;;;;;;;;;;;;;;;;;5027424;28;19920;-51
2023/06/07 16:38:24;;;;;;;;;;;;;;;;;;5026640;28;19928;-52
2023/06/07 16:40:50;;;;;;;;;;;;;;;;;;5028378;28;19919;-51
2023/06/07 16:43:16;;;;;;;;;;;;;;;;;;5027711;28;19919;-50
2023/06/07 16:45:42;;;;;;;;;;;;;;;;;;5037839;28;20007;-51
2023/06/07 16:48:08;;;;;;;;;;;;;;;;;;5025871;28;19995;-52
2023/06/07 16:50:34;;;;;;;;;;;;;;;;;;5030353;28;19912;-48
2023/06/07 16:53:00;;;;;;;;;;;;;;;;;;5030730;28;20289;-51
2023/06/07 16:55:26;;;;;;;;;;;;;;;;;;5012364;28;19913;-52
2023/06/07 16:57:52;;;;;;;;;;;;;;;;;;5030577;28;19948;-51
2023/06/07 17:00:19;;;;;;;;;;;;;;;;;;5030133;28;19909;-51
2023/06/07 17:02:45;;;;;;;;;;;;;;;;;;5030339;28;19972;-50
2023/06/07 17:05:13;;;;;;;;;;;;;;;;;;5029052;28;19913;-52
2023/06/07 17:07:39;;;;;;;;;;;;;;;;;;5028071;28;19920;-52
2023/06/07 17:10:05;;;;;;;;;;;;;;;;;;5028171;28;19982;-50
2023/06/07 17:12:31;;;;;;;;;;;;;;;;;;5028658;28;19952;-49
2023/06/07 17:14:58;;;;;;;;;;;;;;;;;;5018229;28;19917;-51
2023/06/07 17:17:24;;;;;;;;;;;;;;;;;;5024540;28;19917;-49
2023/06/07 17:19:50;;;;;;;;;;;;;;;;;;5026751;28;19972;-51
2023/06/07 17:22:16;;;;;;;;;;;;;;;;;;5024822;28;19948;-51
2023/06/07 17:24:42;;;;;;;;;;;;;;;;;;5029998;28;19932;-50
2023/06/07 17:27:07;;;;;;;;;;;;;;;;;;5029358;28;19913;-51
2023/06/07 17:29:34;;;;;;;;;;;;;;;;;;5028850;28;19913;-50
2023/06/07 17:32:00;;;;;;;;;;;;;;;;;;5028378;28;19921;-52
2023/06/07 17:34:26;;;;;;;;;;;;;;;;;;5027227;28;19917;-51
2023/06/07 17:36:53;;;;;;;;;;;;;;;;;;5028998;28;19924;-48
2023/06/07 17:39:21;;;;;;;;;;;;;;;;;;5030037;28;20103;-49
2023/06/07 17:41:47;;;;;;;;;;;;;;;;;;5048417;28;20004;-50
2023/06/07 17:44:12;;;;;;;;;;;;;;;;;;5035918;28;20441;-51
2023/06/07 17:46:38;;;;;;;;;;;;;;;;;;5024947;28;19913;-52
2023/06/07 17:49:04;;;;;;;;;;;;;;;;;;5027113;28;20311;-50
2023/06/07 17:51:30;;;;;;;;;;;;;;;;;;5027357;28;20406;-48
2023/06/07 17:53:56;;;;;;;;;;;;;;;;;;5024692;28;19913;-49
2023/06/07 17:56:25;;;;;;;;;;;;;;;;;;5027528;28;19913;-49
2023/06/07 17:58:52;;;;;;;;;;;;;;;;;;5027824;28;20233;-52
2023/06/07 18:01:19;;;;;;;;;;;;;;;;;;5016534;28;19917;-51
2023/06/07 18:03:45;;;;;;;;;;;;;;;;;;5022561;28;19921;-49
2023/06/07 18:06:11;;;;;;;;;;;;;;;;;;5027398;28;19916;-49
2023/06/07 18:08:38;;;;;;;;;;;;;;;;;;5027048;28;19910;-51
2023/06/07 18:11:06;;;;;;;;;;;;;;;;;;5025301;28;20300;-48
2023/06/07 18:13:32;;;;;;;;;;;;;;;;;;5037464;28;19908;-52
2023/06/07 18:15:58;;;;;;;;;;;;;;;;;;5047229;28;19936;-51
2023/06/07 18:18:24;;;;;;;;;;;;;;;;;;5031247;28;20369;-49
2023/06/07 18:20:50;;;;;;;;;;;;;;;;;;5027204;28;19953;-51
2023/06/07 18:23:16;;;;;;;;;;;;;;;;;;5025989;28;19917;-50
2023/06/07 18:25:42;;;;;;;;;;;;;;;;;;5025883;28;19948;-51
2023/06/07 18:28:08;;;;;;;;;;;;;;;;;;5024193;28;19920;-52
2023/06/07 18:30:34;;;;;;;;;;;;;;;;;;5023252;28;19913;-49
2023/06/07 18:33:00;;;;;;;;;;;;;;;;;;5023830;28;20374;-51
2023/06/07 18:35:25;;;;;;;;;;;;;;;;;;5006665;28;19920;-50
2023/06/07 18:37:52;;;;;;;;;;;;;;;;;;5024722;28;19999;-50
2023/06/07 18:40:18;;;;;;;;;;;;;;;;;;5024515;28;19957;-51
2023/06/07 18:42:45;;;;;;;;;;;;;;;;;;5003603;28;20003;-50
2023/06/07 18:45:11;;;;;;;;;;;;;;;;;;5026132;28;19916;-50
2023/06/07 18:47:37;;;;;;;;;;;;;;;;;;5025550;28;20364;-49
2023/06/07 18:50:03;;;;;;;;;;;;;;;;;;5019550;28;19913;-48
2023/06/07 18:52:29;;;;;;;;;;;;;;;;;;5025265;28;20321;-51
2023/06/07 18:54:55;;;;;;;;;;;;;;;;;;5023356;28;20195;-50
2023/06/07 18:57:21;;;;;;;;;;;;;;;;;;5024207;28;19921;-49
2023/06/07 18:59:47;;;;;;;;;;;;;;;;;;4999546;28;19936;-52
2023/06/07 19:02:12;;;;;;;;;;;;;;;;;;5037792;28;20000;-51
2023/06/07 19:04:39;;;;;;;;;;;;;;;;;;5033371;28;19920;-52
2023/06/07 19:07:07;;;;;;;;;;;;;;;;;;5023689;28;19917;-52
2023/06/07 19:09:33;;;;;;;;;;;;;;;;;;5025166;28;19917;-52
2023/06/07 19:11:59;;;;;;;;;;;;;;;;;;5024212;28;19967;-50
2023/06/07 19:14:28;;;;;;;;;;;;;;;;;;5022638;28;19917;-49
2023/06/07 19:16:55;;;;;;;;;;;;;;;;;;5022621;28;19921;-48
2023/06/07 19:19:21;;;;;;;;;;;;;;;;;;5022880;28;19913;-51
2023/06/07 19:21:47;;;;;;;;;;;;;;;;;;5006735;28;19913;-49
2023/06/07 19:24:14;;;;;;;;;;;;;;;;;;5005297;28;20619;-50
2023/06/07 19:26:41;;;;;;;;;;;;;;;;;;5022579;28;20395;-51
2023/06/07 19:29:07;;;;;;;;;;;;;;;;;;5021817;28;20692;-51
2023/06/07 19:31:33;;;;;;;;;;;;;;;;;;5022746;28;19913;-52
2023/06/07 19:34:00;;;;;;;;;;;;;;;;;;5005266;28;20485;-50
2023/06/07 19:36:26;;;;;;;;;;;;;;;;;;5023299;28;19917;-47
2023/06/07 19:38:53;;;;;;;;;;;;;;;;;;5023549;28;20394;-50
2023/06/07 19:41:19;;;;;;;;;;;;;;;;;;5023451;28;20000;-52
2023/06/07 19:43:45;;;;;;;;;;;;;;;;;;5022866;28;20008;-50
2023/06/07 19:46:11;;;;;;;;;;;;;;;;;;5005768;28;20041;-48
2023/06/07 19:48:37;;;;;;;;;;;;;;;;;;5022230;28;19935;-50
2023/06/07 19:51:02;;;;;;;;;;;;;;;;;;5024554;28;20392;-48
2023/06/07 19:53:28;;;;;;;;;;;;;;;;;;5024766;28;19955;-50
2023/06/07 19:55:55;;;;;;;;;;;;;;;;;;5023480;28;20356;-49
2023/06/07 19:58:21;;;;;;;;;;;;;;;;;;5023117;28;19917;-52
2023/06/07 20:00:47;;;;;;;;;;;;;;;;;;5021633;28;20454;-47
2023/06/07 20:03:13;;;;;;;;;;;;;;;;;;5024110;28;19921;-51
2023/06/07 20:05:40;;;;;;;;;;;;;;;;;;5024469;28;19951;-49
2023/06/07 20:08:07;;;;;;;;;;;;;;;;;;5021801;28;20307;-48
2023/06/07 20:10:34;;;;;;;;;;;;;;;;;;5010840;28;20050;-50
2023/06/07 20:13:00;;;;;;;;;;;;;;;;;;5023091;28;20008;-51
2023/06/07 20:15:26;;;;;;;;;;;;;;;;;;5022560;28;20016;-51
2023/06/07 20:17:52;;;;;;;;;;;;;;;;;;5024203;28;19924;-49
2023/06/07 20:20:18;;;;;;;;;;;;;;;;;;5027913;28;19920;-47
2023/06/07 20:22:45;;;;;;;;;;;;;;;;;;5023194;28;19924;-53
2023/06/07 20:25:11;;;;;;;;;;;;;;;;;;5025925;28;19917;-51
2023/06/07 20:27:37;;;;;;;;;;;;;;;;;;5025498;28;19920;-51
2023/06/07 20:30:03;;;;;;;;;;;;;;;;;;5025831;28;20007;-47
2023/06/07 20:32:28;;;;;;;;;;;;;;;;;;5025078;28;19996;-49
2023/06/07 20:34:54;;;;;;;;;;;;;;;;;;5025113;28;20400;-51
2023/06/07 20:37:20;;;;;;;;;;;;;;;;;;5024297;28;19928;-50
2023/06/07 20:39:46;;;;;;;;;;;;;;;;;;5026277;28;19924;-47
2023/06/07 20:42:12;;;;;;;;;;;;;;;;;;5022471;28;19917;-50
2023/06/07 20:44:38;;;;;;;;;;;;;;;;;;5005874;28;20331;-49
2023/06/07 20:47:04;;;;;;;;;;;;;;;;;;5026800;28;19945;-51
2023/06/07 20:49:31;;;;;;;;;;;;;;;;;;5025882;28;20406;-48
2023/06/07 20:51:57;;;;;;;;;;;;;;;;;;5026096;28;19913;-49
2023/06/07 20:54:23;;;;;;;;;;;;;;;;;;5025589;28;19919;-51
2023/06/07 20:56:49;;;;;;;;;;;;;;;;;;5025306;28;19913;-50
2023/06/07 20:59:15;;;;;;;;;;;;;;;;;;5024836;28;20015;-48
2023/06/07 21:01:41;;;;;;;;;;;;;;;;;;5024344;28;20519;-50
2023/06/07 21:04:10;;;;;;;;;;;;;;;;;;5027203;28;19920;-45
2023/06/07 21:06:37;;;;;;;;;;;;;;;;;;5025121;28;19925;-48
2023/06/07 21:09:02;;;;;;;;;;;;;;;;;;5024776;28;19944;-50
2023/06/07 21:11:29;;;;;;;;;;;;;;;;;;5023062;28;19960;-51
2023/06/07 21:13:55;;;;;;;;;;;;;;;;;;5001682;28;19925;-51
2023/06/07 21:16:21;;;;;;;;;;;;;;;;;;5027527;28;20376;-52
2023/06/07 21:18:47;;;;;;;;;;;;;;;;;;5025345;28;19913;-50
2023/06/07 21:21:13;;;;;;;;;;;;;;;;;;5024872;28;19917;-51
2023/06/07 21:23:39;;;;;;;;;;;;;;;;;;5005746;28;19965;-51
2023/06/07 21:26:06;;;;;;;;;;;;;;;;;;5006444;28;19920;-50
2023/06/07 21:28:32;;;;;;;;;;;;;;;;;;5024248;28;20012;-48
2023/06/07 21:30:58;;;;;;;;;;;;;;;;;;5004783;28;20003;-48
2023/06/07 21:33:27;;;;;;;;;;;;;;;;;;5026355;28;19979;-49
2023/06/07 21:35:53;;;;;;;;;;;;;;;;;;5007566;28;19913;-49
2023/06/07 21:38:19;;;;;;;;;;;;;;;;;;5026373;28;20411;-51
2023/06/07 21:40:45;;;;;;;;;;;;;;;;;;5022178;28;19920;-50
2023/06/07 21:43:12;;;;;;;;;;;;;;;;;;5026028;28;19925;-47